sensor_id;sensor_type;location;lat;lon;timestamp;P1;durP1;ratioP1;P2;durP2;ratioP2
39620;SDS011;25309;48.686;9.170;2023-05-27T00:02:05;8.77;;;3.17;;
39620;SDS011;25309;48.686;9.170;2023-05-27T00:04:32;8.33;;;3.50;;
39620;SDS011;25309;48.686;9.170;2023-05-27T00:06:59;8.13;;;3.53;;
39620;SDS011;25309;48.686;9.170;2023-05-27T00:09:26;7.13;;;3.33;;
39620;SDS011;25309;48.686;9.170;2023-05-27T00:11:55;8.40;;;3.30;;
39620;SDS011;25309;48.686;9.170;2023-05-27T00:14:22;5.73;;;2.83;;
39620;SDS011;25309;48.686;9.170;2023-05-27T00:16:49;6.33;;;3.00;;
39620;SDS011;25309;48.686;9.170;2023-05-27T00:19:17;8.90;;;3.33;;
39620;SDS011;25309;48.686;9.170;2023-05-27T00:21:44;8.90;;;3.93;;
39620;SDS011;25309;48.686;9.170;2023-05-27T00:24:11;10.53;;;3.40;;
39620;SDS011;25309;48.686;9.170;2023-05-27T00:26:38;9.90;;;3.70;;
39620;SDS011;25309;48.686;9.170;2023-05-27T00:29:07;9.20;;;3.83;;
39620;SDS011;25309;48.686;9.170;2023-05-27T00:31:34;8.73;;;3.17;;
39620;SDS011;25309;48.686;9.170;2023-05-27T00:34:01;8.50;;;3.50;;
39620;SDS011;25309;48.686;9.170;2023-05-27T00:36:29;7.63;;;2.87;;
39620;SDS011;25309;48.686;9.170;2023-05-27T00:38:58;8.63;;;3.70;;
39620;SDS011;25309;48.686;9.170;2023-05-27T00:41:25;9.60;;;3.70;;
39620;SDS011;25309;48.686;9.170;2023-05-27T00:43:52;9.03;;;3.10;;
39620;SDS011;25309;48.686;9.170;2023-05-27T00:46:21;6.40;;;2.97;;
39620;SDS011;25309;48.686;9.170;2023-05-27T00:48:48;10.10;;;3.87;;
39620;SDS011;25309;48.686;9.170;2023-05-27T00:51:16;7.70;;;3.27;;
39620;SDS011;25309;48.686;9.170;2023-05-27T00:53:43;6.50;;;3.13;;
39620;SDS011;25309;48.686;9.170;2023-05-27T00:56:11;7.53;;;3.27;;
39620;SDS011;25309;48.686;9.170;2023-05-27T00:58:43;7.83;;;3.27;;
39620;SDS011;25309;48.686;9.170;2023-05-27T01:01:10;8.83;;;3.40;;
39620;SDS011;25309;48.686;9.170;2023-05-27T01:03:39;7.67;;;3.20;;
39620;SDS011;25309;48.686;9.170;2023-05-27T01:06:11;8.50;;;3.13;;
39620;SDS011;25309;48.686;9.170;2023-05-27T01:08:45;7.93;;;3.20;;
39620;SDS011;25309;48.686;9.170;2023-05-27T01:11:19;5.77;;;3.17;;
39620;SDS011;25309;48.686;9.170;2023-05-27T01:13:55;7.30;;;3.17;;
39620;SDS011;25309;48.686;9.170;2023-05-27T01:16:25;6.23;;;3.27;;
39620;SDS011;25309;48.686;9.170;2023-05-27T01:18:55;9.00;;;3.23;;
39620;SDS011;25309;48.686;9.170;2023-05-27T01:21:26;6.40;;;3.03;;
39620;SDS011;25309;48.686;9.170;2023-05-27T01:24:03;7.50;;;3.50;;
39620;SDS011;25309;48.686;9.170;2023-05-27T01:26:31;8.30;;;3.47;;
39620;SDS011;25309;48.686;9.170;2023-05-27T01:28:58;8.07;;;3.27;;
39620;SDS011;25309;48.686;9.170;2023-05-27T01:31:27;10.30;;;3.70;;
39620;SDS011;25309;48.686;9.170;2023-05-27T01:33:59;9.33;;;3.73;;
39620;SDS011;25309;48.686;9.170;2023-05-27T01:36:30;9.13;;;3.80;;
39620;SDS011;25309;48.686;9.170;2023-05-27T01:38:59;9.17;;;3.17;;
39620;SDS011;25309;48.686;9.170;2023-05-27T01:41:29;9.67;;;3.33;;
39620;SDS011;25309;48.686;9.170;2023-05-27T01:43:57;10.20;;;3.30;;
39620;SDS011;25309;48.686;9.170;2023-05-27T01:46:25;8.00;;;3.23;;
39620;SDS011;25309;48.686;9.170;2023-05-27T01:48:52;7.67;;;3.20;;
39620;SDS011;25309;48.686;9.170;2023-05-27T01:51:19;8.27;;;3.80;;
39620;SDS011;25309;48.686;9.170;2023-05-27T01:53:46;9.33;;;3.70;;
39620;SDS011;25309;48.686;9.170;2023-05-27T01:56:13;8.83;;;3.73;;
39620;SDS011;25309;48.686;9.170;2023-05-27T01:58:41;8.67;;;3.40;;
39620;SDS011;25309;48.686;9.170;2023-05-27T02:01:09;9.43;;;3.93;;
39620;SDS011;25309;48.686;9.170;2023-05-27T02:03:36;7.87;;;3.43;;
39620;SDS011;25309;48.686;9.170;2023-05-27T02:06:03;9.17;;;3.60;;
39620;SDS011;25309;48.686;9.170;2023-05-27T02:08:30;9.27;;;3.23;;
39620;SDS011;25309;48.686;9.170;2023-05-27T02:10:57;8.53;;;3.83;;
39620;SDS011;25309;48.686;9.170;2023-05-27T02:13:24;7.47;;;3.37;;
39620;SDS011;25309;48.686;9.170;2023-05-27T02:15:53;9.10;;;3.70;;
39620;SDS011;25309;48.686;9.170;2023-05-27T02:18:20;8.07;;;3.30;;
39620;SDS011;25309;48.686;9.170;2023-05-27T02:20:47;9.70;;;3.67;;
39620;SDS011;25309;48.686;9.170;2023-05-27T02:23:14;9.17;;;3.40;;
39620;SDS011;25309;48.686;9.170;2023-05-27T02:25:41;8.97;;;3.40;;
39620;SDS011;25309;48.686;9.170;2023-05-27T02:28:08;9.43;;;3.37;;
39620;SDS011;25309;48.686;9.170;2023-05-27T02:30:35;8.20;;;3.40;;
39620;SDS011;25309;48.686;9.170;2023-05-27T02:33:04;8.73;;;3.80;;
39620;SDS011;25309;48.686;9.170;2023-05-27T02:35:31;8.50;;;3.47;;
39620;SDS011;25309;48.686;9.170;2023-05-27T02:37:59;10.90;;;3.83;;
39620;SDS011;25309;48.686;9.170;2023-05-27T02:40:26;8.80;;;4.00;;
39620;SDS011;25309;48.686;9.170;2023-05-27T02:42:55;6.70;;;3.37;;
39620;SDS011;25309;48.686;9.170;2023-05-27T02:45:22;10.43;;;3.70;;
39620;SDS011;25309;48.686;9.170;2023-05-27T02:47:50;9.37;;;3.83;;
39620;SDS011;25309;48.686;9.170;2023-05-27T02:50:19;9.50;;;3.50;;
39620;SDS011;25309;48.686;9.170;2023-05-27T02:52:46;8.07;;;3.23;;
39620;SDS011;25309;48.686;9.170;2023-05-27T02:55:13;7.77;;;3.60;;
39620;SDS011;25309;48.686;9.170;2023-05-27T02:57:40;10.40;;;3.57;;
39620;SDS011;25309;48.686;9.170;2023-05-27T03:00:08;7.03;;;3.60;;
39620;SDS011;25309;48.686;9.170;2023-05-27T03:02:37;8.13;;;3.70;;
39620;SDS011;25309;48.686;9.170;2023-05-27T03:05:05;8.07;;;3.30;;
39620;SDS011;25309;48.686;9.170;2023-05-27T03:07:33;8.03;;;3.40;;
39620;SDS011;25309;48.686;9.170;2023-05-27T03:10:00;8.90;;;3.27;;
39620;SDS011;25309;48.686;9.170;2023-05-27T03:12:29;10.77;;;3.43;;
39620;SDS011;25309;48.686;9.170;2023-05-27T03:14:56;9.03;;;3.70;;
39620;SDS011;25309;48.686;9.170;2023-05-27T03:17:24;9.00;;;3.80;;
39620;SDS011;25309;48.686;9.170;2023-05-27T03:19:51;8.67;;;3.30;;
39620;SDS011;25309;48.686;9.170;2023-05-27T03:22:18;8.50;;;3.37;;
39620;SDS011;25309;48.686;9.170;2023-05-27T03:24:46;8.97;;;3.17;;
39620;SDS011;25309;48.686;9.170;2023-05-27T03:27:13;9.30;;;3.53;;
39620;SDS011;25309;48.686;9.170;2023-05-27T03:29:43;6.90;;;3.00;;
39620;SDS011;25309;48.686;9.170;2023-05-27T03:32:11;8.07;;;3.40;;
39620;SDS011;25309;48.686;9.170;2023-05-27T03:34:39;9.70;;;3.50;;
39620;SDS011;25309;48.686;9.170;2023-05-27T03:37:06;10.60;;;3.50;;
39620;SDS011;25309;48.686;9.170;2023-05-27T03:39:58;9.73;;;3.70;;
39620;SDS011;25309;48.686;9.170;2023-05-27T03:42:26;8.00;;;3.60;;
39620;SDS011;25309;48.686;9.170;2023-05-27T03:44:53;10.93;;;3.77;;
39620;SDS011;25309;48.686;9.170;2023-05-27T03:47:20;10.37;;;3.70;;
39620;SDS011;25309;48.686;9.170;2023-05-27T03:49:48;7.77;;;3.50;;
39620;SDS011;25309;48.686;9.170;2023-05-27T03:52:17;9.60;;;3.93;;
39620;SDS011;25309;48.686;9.170;2023-05-27T03:54:44;9.93;;;3.60;;
39620;SDS011;25309;48.686;9.170;2023-05-27T03:57:13;8.97;;;3.63;;
39620;SDS011;25309;48.686;9.170;2023-05-27T03:59:40;10.47;;;3.37;;
39620;SDS011;25309;48.686;9.170;2023-05-27T04:02:07;8.03;;;3.60;;
39620;SDS011;25309;48.686;9.170;2023-05-27T04:04:34;8.37;;;3.40;;
39620;SDS011;25309;48.686;9.170;2023-05-27T04:07:02;8.30;;;3.33;;
39620;SDS011;25309;48.686;9.170;2023-05-27T04:09:29;9.00;;;3.70;;
39620;SDS011;25309;48.686;9.170;2023-05-27T04:11:58;9.23;;;4.00;;
39620;SDS011;25309;48.686;9.170;2023-05-27T04:14:26;8.77;;;3.70;;
39620;SDS011;25309;48.686;9.170;2023-05-27T04:16:54;9.67;;;3.60;;
39620;SDS011;25309;48.686;9.170;2023-05-27T04:19:21;9.27;;;3.33;;
39620;SDS011;25309;48.686;9.170;2023-05-27T04:21:48;7.47;;;3.83;;
39620;SDS011;25309;48.686;9.170;2023-05-27T04:24:15;9.70;;;3.67;;
39620;SDS011;25309;48.686;9.170;2023-05-27T04:26:44;9.70;;;3.80;;
39620;SDS011;25309;48.686;9.170;2023-05-27T04:29:14;9.30;;;3.57;;
39620;SDS011;25309;48.686;9.170;2023-05-27T04:31:43;10.00;;;3.30;;
39620;SDS011;25309;48.686;9.170;2023-05-27T04:34:15;10.93;;;3.80;;
39620;SDS011;25309;48.686;9.170;2023-05-27T04:36:45;11.20;;;3.73;;
39620;SDS011;25309;48.686;9.170;2023-05-27T04:39:18;8.30;;;3.30;;
39620;SDS011;25309;48.686;9.170;2023-05-27T04:41:45;10.53;;;4.00;;
39620;SDS011;25309;48.686;9.170;2023-05-27T04:44:18;9.53;;;3.57;;
39620;SDS011;25309;48.686;9.170;2023-05-27T04:46:49;10.13;;;3.70;;
39620;SDS011;25309;48.686;9.170;2023-05-27T04:49:16;8.43;;;3.60;;
39620;SDS011;25309;48.686;9.170;2023-05-27T04:51:43;7.93;;;3.53;;
39620;SDS011;25309;48.686;9.170;2023-05-27T04:54:12;7.53;;;3.50;;
39620;SDS011;25309;48.686;9.170;2023-05-27T04:56:39;9.27;;;3.40;;
39620;SDS011;25309;48.686;9.170;2023-05-27T04:59:12;9.33;;;3.40;;
39620;SDS011;25309;48.686;9.170;2023-05-27T05:01:43;7.30;;;3.60;;
39620;SDS011;25309;48.686;9.170;2023-05-27T05:04:45;8.37;;;4.27;;
39620;SDS011;25309;48.686;9.170;2023-05-27T05:07:12;8.30;;;3.67;;
39620;SDS011;25309;48.686;9.170;2023-05-27T05:09:40;8.03;;;3.23;;
39620;SDS011;25309;48.686;9.170;2023-05-27T05:12:14;13.17;;;3.60;;
39620;SDS011;25309;48.686;9.170;2023-05-27T05:14:45;11.20;;;3.80;;
39620;SDS011;25309;48.686;9.170;2023-05-27T05:17:12;8.93;;;4.00;;
39620;SDS011;25309;48.686;9.170;2023-05-27T05:19:40;13.80;;;4.10;;
39620;SDS011;25309;48.686;9.170;2023-05-27T05:22:08;9.70;;;3.63;;
39620;SDS011;25309;48.686;9.170;2023-05-27T05:24:35;9.77;;;3.53;;
39620;SDS011;25309;48.686;9.170;2023-05-27T05:27:02;10.83;;;3.60;;
39620;SDS011;25309;48.686;9.170;2023-05-27T05:29:30;7.23;;;3.20;;
39620;SDS011;25309;48.686;9.170;2023-05-27T05:31:57;8.47;;;3.30;;
39620;SDS011;25309;48.686;9.170;2023-05-27T05:34:25;8.27;;;3.50;;
39620;SDS011;25309;48.686;9.170;2023-05-27T05:36:52;7.33;;;3.33;;
39620;SDS011;25309;48.686;9.170;2023-05-27T05:39:20;7.37;;;3.33;;
39620;SDS011;25309;48.686;9.170;2023-05-27T05:41:53;10.37;;;3.50;;
39620;SDS011;25309;48.686;9.170;2023-05-27T05:44:20;7.27;;;3.30;;
39620;SDS011;25309;48.686;9.170;2023-05-27T05:46:51;10.43;;;4.00;;
39620;SDS011;25309;48.686;9.170;2023-05-27T05:49:19;7.17;;;3.07;;
39620;SDS011;25309;48.686;9.170;2023-05-27T05:51:48;10.50;;;3.53;;
39620;SDS011;25309;48.686;9.170;2023-05-27T05:54:15;8.47;;;3.47;;
39620;SDS011;25309;48.686;9.170;2023-05-27T05:56:49;9.07;;;3.80;;
39620;SDS011;25309;48.686;9.170;2023-05-27T05:59:16;8.63;;;3.67;;
39620;SDS011;25309;48.686;9.170;2023-05-27T06:01:43;8.60;;;3.33;;
39620;SDS011;25309;48.686;9.170;2023-05-27T06:04:10;9.53;;;3.57;;
39620;SDS011;25309;48.686;9.170;2023-05-27T06:06:40;10.90;;;3.53;;
39620;SDS011;25309;48.686;9.170;2023-05-27T06:09:26;9.00;;;3.40;;
39620;SDS011;25309;48.686;9.170;2023-05-27T06:11:58;10.37;;;3.90;;
39620;SDS011;25309;48.686;9.170;2023-05-27T06:14:26;7.60;;;3.33;;
39620;SDS011;25309;48.686;9.170;2023-05-27T06:16:56;9.80;;;3.73;;
39620;SDS011;25309;48.686;9.170;2023-05-27T06:19:23;8.10;;;4.03;;
39620;SDS011;25309;48.686;9.170;2023-05-27T06:21:50;9.13;;;3.83;;
39620;SDS011;25309;48.686;9.170;2023-05-27T06:24:36;8.60;;;3.47;;
39620;SDS011;25309;48.686;9.170;2023-05-27T06:27:13;10.03;;;3.97;;
39620;SDS011;25309;48.686;9.170;2023-05-27T06:29:40;11.30;;;4.17;;
39620;SDS011;25309;48.686;9.170;2023-05-27T06:32:08;8.33;;;3.87;;
39620;SDS011;25309;48.686;9.170;2023-05-27T06:34:35;8.90;;;3.57;;
39620;SDS011;25309;48.686;9.170;2023-05-27T06:37:03;11.07;;;3.50;;
39620;SDS011;25309;48.686;9.170;2023-05-27T06:39:30;8.87;;;3.60;;
39620;SDS011;25309;48.686;9.170;2023-05-27T06:41:57;8.40;;;3.80;;
39620;SDS011;25309;48.686;9.170;2023-05-27T06:44:49;8.73;;;3.57;;
39620;SDS011;25309;48.686;9.170;2023-05-27T06:47:20;9.10;;;3.67;;
39620;SDS011;25309;48.686;9.170;2023-05-27T06:49:48;8.50;;;3.60;;
39620;SDS011;25309;48.686;9.170;2023-05-27T06:52:15;10.43;;;4.10;;
39620;SDS011;25309;48.686;9.170;2023-05-27T06:55:10;8.77;;;3.93;;
39620;SDS011;25309;48.686;9.170;2023-05-27T06:57:56;9.43;;;3.50;;
39620;SDS011;25309;48.686;9.170;2023-05-27T07:00:36;8.10;;;3.60;;
39620;SDS011;25309;48.686;9.170;2023-05-27T07:03:20;8.63;;;3.70;;
39620;SDS011;25309;48.686;9.170;2023-05-27T07:05:47;8.03;;;3.90;;
39620;SDS011;25309;48.686;9.170;2023-05-27T07:08:15;8.97;;;3.77;;
39620;SDS011;25309;48.686;9.170;2023-05-27T07:10:43;6.80;;;3.37;;
39620;SDS011;25309;48.686;9.170;2023-05-27T07:13:09;10.40;;;4.00;;
39620;SDS011;25309;48.686;9.170;2023-05-27T07:15:45;11.40;;;4.20;;
39620;SDS011;25309;48.686;9.170;2023-05-27T07:18:13;9.87;;;4.23;;
39620;SDS011;25309;48.686;9.170;2023-05-27T07:20:42;10.00;;;4.43;;
39620;SDS011;25309;48.686;9.170;2023-05-27T07:23:11;7.30;;;4.00;;
39620;SDS011;25309;48.686;9.170;2023-05-27T07:25:39;8.97;;;4.10;;
39620;SDS011;25309;48.686;9.170;2023-05-27T07:28:06;9.07;;;4.17;;
39620;SDS011;25309;48.686;9.170;2023-05-27T07:30:40;7.27;;;3.50;;
39620;SDS011;25309;48.686;9.170;2023-05-27T07:33:09;7.17;;;3.53;;
39620;SDS011;25309;48.686;9.170;2023-05-27T07:35:37;8.50;;;3.73;;
39620;SDS011;25309;48.686;9.170;2023-05-27T07:38:04;7.87;;;3.93;;
39620;SDS011;25309;48.686;9.170;2023-05-27T07:40:31;10.07;;;4.03;;
39620;SDS011;25309;48.686;9.170;2023-05-27T07:42:58;9.63;;;3.90;;
39620;SDS011;25309;48.686;9.170;2023-05-27T07:45:25;11.03;;;4.47;;
39620;SDS011;25309;48.686;9.170;2023-05-27T07:47:52;9.27;;;3.90;;
39620;SDS011;25309;48.686;9.170;2023-05-27T07:50:20;9.17;;;3.90;;
39620;SDS011;25309;48.686;9.170;2023-05-27T07:53:08;10.10;;;4.10;;
39620;SDS011;25309;48.686;9.170;2023-05-27T07:55:37;9.30;;;4.00;;
39620;SDS011;25309;48.686;9.170;2023-05-27T07:58:04;7.17;;;3.63;;
39620;SDS011;25309;48.686;9.170;2023-05-27T08:00:45;7.30;;;4.00;;
39620;SDS011;25309;48.686;9.170;2023-05-27T08:03:12;9.10;;;3.87;;
39620;SDS011;25309;48.686;9.170;2023-05-27T08:05:55;7.50;;;4.03;;
39620;SDS011;25309;48.686;9.170;2023-05-27T08:08:40;11.17;;;4.50;;
39620;SDS011;25309;48.686;9.170;2023-05-27T08:11:32;9.10;;;4.27;;
39620;SDS011;25309;48.686;9.170;2023-05-27T08:14:17;7.17;;;4.00;;
39620;SDS011;25309;48.686;9.170;2023-05-27T08:16:59;11.87;;;3.97;;
39620;SDS011;25309;48.686;9.170;2023-05-27T08:19:42;10.00;;;4.13;;
39620;SDS011;25309;48.686;9.170;2023-05-27T08:22:29;8.83;;;4.30;;
39620;SDS011;25309;48.686;9.170;2023-05-27T08:25:15;8.07;;;4.03;;
39620;SDS011;25309;48.686;9.170;2023-05-27T08:28:02;8.00;;;3.73;;
39620;SDS011;25309;48.686;9.170;2023-05-27T08:30:36;8.47;;;4.17;;
39620;SDS011;25309;48.686;9.170;2023-05-27T08:33:19;9.73;;;4.27;;
39620;SDS011;25309;48.686;9.170;2023-05-27T08:35:47;8.47;;;4.10;;
39620;SDS011;25309;48.686;9.170;2023-05-27T08:38:15;8.97;;;4.30;;
39620;SDS011;25309;48.686;9.170;2023-05-27T08:40:44;9.47;;;4.23;;
39620;SDS011;25309;48.686;9.170;2023-05-27T08:43:11;7.60;;;4.20;;
39620;SDS011;25309;48.686;9.170;2023-05-27T08:45:42;6.90;;;4.00;;
39620;SDS011;25309;48.686;9.170;2023-05-27T08:48:10;10.20;;;4.33;;
39620;SDS011;25309;48.686;9.170;2023-05-27T08:50:39;7.67;;;3.90;;
39620;SDS011;25309;48.686;9.170;2023-05-27T08:53:06;9.63;;;4.13;;
39620;SDS011;25309;48.686;9.170;2023-05-27T08:55:37;8.73;;;4.67;;
39620;SDS011;25309;48.686;9.170;2023-05-27T08:58:08;8.10;;;4.10;;
39620;SDS011;25309;48.686;9.170;2023-05-27T09:00:41;10.37;;;4.53;;
39620;SDS011;25309;48.686;9.170;2023-05-27T09:03:15;9.37;;;4.37;;
39620;SDS011;25309;48.686;9.170;2023-05-27T09:05:44;10.87;;;4.30;;
39620;SDS011;25309;48.686;9.170;2023-05-27T09:08:11;8.80;;;4.70;;
39620;SDS011;25309;48.686;9.170;2023-05-27T09:10:40;8.37;;;3.90;;
39620;SDS011;25309;48.686;9.170;2023-05-27T09:13:09;10.80;;;4.70;;
39620;SDS011;25309;48.686;9.170;2023-05-27T09:15:36;9.03;;;4.67;;
39620;SDS011;25309;48.686;9.170;2023-05-27T09:18:04;8.67;;;4.30;;
39620;SDS011;25309;48.686;9.170;2023-05-27T09:20:31;6.93;;;4.30;;
39620;SDS011;25309;48.686;9.170;2023-05-27T09:22:59;11.87;;;5.03;;
39620;SDS011;25309;48.686;9.170;2023-05-27T09:25:27;9.13;;;4.60;;
39620;SDS011;25309;48.686;9.170;2023-05-27T09:27:56;10.60;;;4.43;;
39620;SDS011;25309;48.686;9.170;2023-05-27T09:30:23;7.80;;;4.33;;
39620;SDS011;25309;48.686;9.170;2023-05-27T09:32:59;9.40;;;4.17;;
39620;SDS011;25309;48.686;9.170;2023-05-27T09:35:27;9.93;;;4.60;;
39620;SDS011;25309;48.686;9.170;2023-05-27T09:37:54;6.93;;;4.13;;
39620;SDS011;25309;48.686;9.170;2023-05-27T09:40:31;9.00;;;4.20;;
39620;SDS011;25309;48.686;9.170;2023-05-27T09:43:02;8.60;;;4.73;;
39620;SDS011;25309;48.686;9.170;2023-05-27T09:45:29;7.93;;;4.70;;
39620;SDS011;25309;48.686;9.170;2023-05-27T09:47:57;7.97;;;4.50;;
39620;SDS011;25309;48.686;9.170;2023-05-27T09:50:27;10.13;;;4.70;;
39620;SDS011;25309;48.686;9.170;2023-05-27T09:52:56;7.57;;;4.13;;
39620;SDS011;25309;48.686;9.170;2023-05-27T09:55:36;7.53;;;4.37;;
39620;SDS011;25309;48.686;9.170;2023-05-27T09:58:07;7.27;;;4.67;;
39620;SDS011;25309;48.686;9.170;2023-05-27T10:00:34;8.20;;;4.40;;
39620;SDS011;25309;48.686;9.170;2023-05-27T10:03:02;6.50;;;4.20;;
39620;SDS011;25309;48.686;9.170;2023-05-27T10:05:30;10.27;;;4.77;;
39620;SDS011;25309;48.686;9.170;2023-05-27T10:07:57;7.83;;;4.37;;
39620;SDS011;25309;48.686;9.170;2023-05-27T10:10:43;6.77;;;4.20;;
39620;SDS011;25309;48.686;9.170;2023-05-27T10:13:12;8.97;;;4.40;;
39620;SDS011;25309;48.686;9.170;2023-05-27T10:15:45;9.20;;;4.90;;
39620;SDS011;25309;48.686;9.170;2023-05-27T10:18:21;7.77;;;4.63;;
39620;SDS011;25309;48.686;9.170;2023-05-27T10:20:49;7.27;;;4.60;;
39620;SDS011;25309;48.686;9.170;2023-05-27T10:23:18;8.30;;;4.50;;
39620;SDS011;25309;48.686;9.170;2023-05-27T10:25:48;7.53;;;4.50;;
39620;SDS011;25309;48.686;9.170;2023-05-27T10:28:24;8.30;;;4.47;;
39620;SDS011;25309;48.686;9.170;2023-05-27T10:30:52;5.93;;;4.17;;
39620;SDS011;25309;48.686;9.170;2023-05-27T10:33:29;7.20;;;4.57;;
39620;SDS011;25309;48.686;9.170;2023-05-27T10:36:02;7.80;;;4.50;;
39620;SDS011;25309;48.686;9.170;2023-05-27T10:38:30;8.33;;;4.53;;
39620;SDS011;25309;48.686;9.170;2023-05-27T10:40:58;8.53;;;4.33;;
39620;SDS011;25309;48.686;9.170;2023-05-27T10:43:30;7.10;;;4.30;;
39620;SDS011;25309;48.686;9.170;2023-05-27T10:46:03;8.10;;;4.10;;
39620;SDS011;25309;48.686;9.170;2023-05-27T10:48:31;8.03;;;4.47;;
39620;SDS011;25309;48.686;9.170;2023-05-27T10:51:00;9.37;;;5.17;;
39620;SDS011;25309;48.686;9.170;2023-05-27T10:53:27;9.43;;;4.70;;
39620;SDS011;25309;48.686;9.170;2023-05-27T10:55:57;8.17;;;4.17;;
39620;SDS011;25309;48.686;9.170;2023-05-27T10:58:25;6.10;;;4.30;;
39620;SDS011;25309;48.686;9.170;2023-05-27T11:00:53;7.93;;;4.30;;
39620;SDS011;25309;48.686;9.170;2023-05-27T11:03:24;7.73;;;4.90;;
39620;SDS011;25309;48.686;9.170;2023-05-27T11:05:56;7.00;;;4.50;;
39620;SDS011;25309;48.686;9.170;2023-05-27T11:08:28;6.40;;;3.97;;
39620;SDS011;25309;48.686;9.170;2023-05-27T11:10:57;6.93;;;4.30;;
39620;SDS011;25309;48.686;9.170;2023-05-27T11:13:29;7.60;;;4.90;;
39620;SDS011;25309;48.686;9.170;2023-05-27T11:16:02;7.67;;;4.70;;
39620;SDS011;25309;48.686;9.170;2023-05-27T11:18:39;8.40;;;4.20;;
39620;SDS011;25309;48.686;9.170;2023-05-27T11:21:07;8.60;;;4.53;;
39620;SDS011;25309;48.686;9.170;2023-05-27T11:23:36;7.67;;;4.30;;
39620;SDS011;25309;48.686;9.170;2023-05-27T11:26:15;6.03;;;4.27;;
39620;SDS011;25309;48.686;9.170;2023-05-27T11:28:46;6.93;;;4.43;;
39620;SDS011;25309;48.686;9.170;2023-05-27T11:31:15;9.63;;;4.67;;
39620;SDS011;25309;48.686;9.170;2023-05-27T11:33:43;8.73;;;4.60;;
39620;SDS011;25309;48.686;9.170;2023-05-27T11:36:15;8.80;;;4.70;;
39620;SDS011;25309;48.686;9.170;2023-05-27T11:38:49;7.73;;;4.60;;
39620;SDS011;25309;48.686;9.170;2023-05-27T11:41:19;8.27;;;4.70;;
39620;SDS011;25309;48.686;9.170;2023-05-27T11:43:50;8.33;;;4.73;;
39620;SDS011;25309;48.686;9.170;2023-05-27T11:46:19;7.60;;;4.40;;
39620;SDS011;25309;48.686;9.170;2023-05-27T11:48:46;8.03;;;4.40;;
39620;SDS011;25309;48.686;9.170;2023-05-27T11:51:14;9.47;;;4.73;;
39620;SDS011;25309;48.686;9.170;2023-05-27T11:53:44;5.97;;;4.07;;
39620;SDS011;25309;48.686;9.170;2023-05-27T11:56:11;7.17;;;4.27;;
39620;SDS011;25309;48.686;9.170;2023-05-27T11:58:38;6.77;;;4.40;;
39620;SDS011;25309;48.686;9.170;2023-05-27T12:01:05;8.75;;;5.22;;
39620;SDS011;25309;48.686;9.170;2023-05-27T12:03:34;6.70;;;4.70;;
39620;SDS011;25309;48.686;9.170;2023-05-27T12:06:02;8.43;;;5.13;;
39620;SDS011;25309;48.686;9.170;2023-05-27T12:08:30;8.80;;;4.70;;
39620;SDS011;25309;48.686;9.170;2023-05-27T12:10:57;7.00;;;4.60;;
39620;SDS011;25309;48.686;9.170;2023-05-27T12:13:24;6.37;;;3.97;;
39620;SDS011;25309;48.686;9.170;2023-05-27T12:15:52;6.60;;;4.55;;
39620;SDS011;25309;48.686;9.170;2023-05-27T12:18:19;6.57;;;4.10;;
39620;SDS011;25309;48.686;9.170;2023-05-27T12:20:47;7.55;;;4.20;;
39620;SDS011;25309;48.686;9.170;2023-05-27T12:23:15;6.68;;;4.32;;
39620;SDS011;25309;48.686;9.170;2023-05-27T12:25:42;6.40;;;4.30;;
39620;SDS011;25309;48.686;9.170;2023-05-27T12:28:09;7.60;;;4.57;;
39620;SDS011;25309;48.686;9.170;2023-05-27T12:30:36;8.07;;;4.53;;
39620;SDS011;25309;48.686;9.170;2023-05-27T12:33:04;10.18;;;4.80;;
39620;SDS011;25309;48.686;9.170;2023-05-27T12:35:32;9.80;;;5.20;;
39620;SDS011;25309;48.686;9.170;2023-05-27T12:38:01;9.35;;;4.78;;
39620;SDS011;25309;48.686;9.170;2023-05-27T12:40:28;6.97;;;4.55;;
39620;SDS011;25309;48.686;9.170;2023-05-27T12:42:55;6.13;;;4.57;;
39620;SDS011;25309;48.686;9.170;2023-05-27T12:45:23;7.28;;;4.93;;
39620;SDS011;25309;48.686;9.170;2023-05-27T12:47:52;6.68;;;4.50;;
39620;SDS011;25309;48.686;9.170;2023-05-27T12:50:19;6.78;;;4.43;;
39620;SDS011;25309;48.686;9.170;2023-05-27T12:52:47;7.63;;;4.85;;
39620;SDS011;25309;48.686;9.170;2023-05-27T12:55:16;5.60;;;4.40;;
39620;SDS011;25309;48.686;9.170;2023-05-27T12:57:44;10.02;;;4.97;;
39620;SDS011;25309;48.686;9.170;2023-05-27T13:00:13;6.63;;;5.00;;
39620;SDS011;25309;48.686;9.170;2023-05-27T13:02:40;7.68;;;5.53;;
39620;SDS011;25309;48.686;9.170;2023-05-27T13:05:09;6.68;;;4.70;;
39620;SDS011;25309;48.686;9.170;2023-05-27T13:07:36;7.25;;;5.50;;
39620;SDS011;25309;48.686;9.170;2023-05-27T13:10:06;6.93;;;4.75;;
39620;SDS011;25309;48.686;9.170;2023-05-27T13:12:38;6.47;;;4.82;;
39620;SDS011;25309;48.686;9.170;2023-05-27T13:15:06;7.38;;;5.05;;
39620;SDS011;25309;48.686;9.170;2023-05-27T13:17:34;7.50;;;4.97;;
39620;SDS011;25309;48.686;9.170;2023-05-27T13:20:02;9.25;;;5.68;;
39620;SDS011;25309;48.686;9.170;2023-05-27T13:22:30;9.68;;;5.30;;
39620;SDS011;25309;48.686;9.170;2023-05-27T13:24:57;7.38;;;5.10;;
39620;SDS011;25309;48.686;9.170;2023-05-27T13:27:24;7.47;;;4.93;;
39620;SDS011;25309;48.686;9.170;2023-05-27T13:29:53;7.15;;;4.90;;
39620;SDS011;25309;48.686;9.170;2023-05-27T13:32:20;8.20;;;5.43;;
39620;SDS011;25309;48.686;9.170;2023-05-27T13:34:47;8.32;;;5.15;;
39620;SDS011;25309;48.686;9.170;2023-05-27T13:37:14;6.93;;;4.93;;
39620;SDS011;25309;48.686;9.170;2023-05-27T13:39:41;7.72;;;5.18;;
39620;SDS011;25309;48.686;9.170;2023-05-27T13:42:09;7.70;;;5.15;;
39620;SDS011;25309;48.686;9.170;2023-05-27T13:44:36;6.85;;;4.72;;
39620;SDS011;25309;48.686;9.170;2023-05-27T13:47:05;7.35;;;4.85;;
39620;SDS011;25309;48.686;9.170;2023-05-27T13:49:32;9.13;;;5.50;;
39620;SDS011;25309;48.686;9.170;2023-05-27T13:51:59;8.23;;;4.97;;
39620;SDS011;25309;48.686;9.170;2023-05-27T13:54:26;6.75;;;4.97;;
39620;SDS011;25309;48.686;9.170;2023-05-27T13:56:53;11.02;;;4.85;;
39620;SDS011;25309;48.686;9.170;2023-05-27T13:59:20;6.75;;;5.15;;
39620;SDS011;25309;48.686;9.170;2023-05-27T14:01:48;7.57;;;4.85;;
39620;SDS011;25309;48.686;9.170;2023-05-27T14:04:18;8.05;;;4.88;;
39620;SDS011;25309;48.686;9.170;2023-05-27T14:06:47;7.88;;;5.00;;
39620;SDS011;25309;48.686;9.170;2023-05-27T14:09:14;7.65;;;5.13;;
39620;SDS011;25309;48.686;9.170;2023-05-27T14:11:41;8.50;;;5.45;;
39620;SDS011;25309;48.686;9.170;2023-05-27T14:14:08;8.20;;;4.63;;
39620;SDS011;25309;48.686;9.170;2023-05-27T14:16:35;7.00;;;4.50;;
39620;SDS011;25309;48.686;9.170;2023-05-27T14:19:05;6.45;;;4.35;;
39620;SDS011;25309;48.686;9.170;2023-05-27T14:21:33;7.40;;;4.70;;
39620;SDS011;25309;48.686;9.170;2023-05-27T14:24:00;5.50;;;3.92;;
39620;SDS011;25309;48.686;9.170;2023-05-27T14:26:27;7.13;;;4.63;;
39620;SDS011;25309;48.686;9.170;2023-05-27T14:28:54;7.45;;;4.72;;
39620;SDS011;25309;48.686;9.170;2023-05-27T14:31:21;6.95;;;4.38;;
39620;SDS011;25309;48.686;9.170;2023-05-27T14:33:48;7.75;;;4.82;;
39620;SDS011;25309;48.686;9.170;2023-05-27T14:36:15;5.95;;;4.22;;
39620;SDS011;25309;48.686;9.170;2023-05-27T14:38:43;7.03;;;4.28;;
39620;SDS011;25309;48.686;9.170;2023-05-27T14:41:11;6.00;;;4.30;;
39620;SDS011;25309;48.686;9.170;2023-05-27T14:43:38;5.75;;;3.95;;
39620;SDS011;25309;48.686;9.170;2023-05-27T14:46:04;7.30;;;4.22;;
39620;SDS011;25309;48.686;9.170;2023-05-27T14:48:31;6.38;;;4.13;;
39620;SDS011;25309;48.686;9.170;2023-05-27T14:50:58;6.13;;;4.22;;
39620;SDS011;25309;48.686;9.170;2023-05-27T14:53:25;7.57;;;4.25;;
39620;SDS011;25309;48.686;9.170;2023-05-27T14:55:54;7.00;;;4.10;;
39620;SDS011;25309;48.686;9.170;2023-05-27T14:58:21;5.65;;;3.63;;
39620;SDS011;25309;48.686;9.170;2023-05-27T15:00:48;6.20;;;3.85;;